Avon Lake, Ohio
Current Conditions -  °F | °C
As of 4:26 PM on Saturday 20 Dec 2014 (Local Time) from KCLE Reporting Station
Overcast Overcast  
Wind Chill: 31°   Ceiling: 3000
Heat Index: 31°   Visibility: 10mi
Dew Point: 21°   Wind: 3mph
Humidity: 67%   Direction: 270°W
Pressure: 30.28"   Gusts: NA
Location:  41.51°N, 82.02°W
Report Text: KCLE 202126Z 27003KT 10SM OVC030 M01/M06 A3028 RMK AO2 T10061061 $
Loading
Personal Weather Stations






























Interactive Weather Map New forecast layout! Learn more

10-Day Weather Forecast

Advertisements
Track Severe Weather on mobile